sensor_id;sensor_type;location;lat;lon;timestamp;P1;durP1;ratioP1;P2;durP2;ratioP2
45490;SDS011;31237;45.586;13.782;2023-03-24T00:01:12;0.60;;;0.60;;
45490;SDS011;31237;45.586;13.782;2023-03-24T00:03:37;0.73;;;0.73;;
45490;SDS011;31237;45.586;13.782;2023-03-24T00:06:04;1.17;;;1.10;;
45490;SDS011;31237;45.586;13.782;2023-03-24T00:08:31;0.50;;;0.50;;
45490;SDS011;31237;45.586;13.782;2023-03-24T00:10:59;0.50;;;0.50;;
45490;SDS011;31237;45.586;13.782;2023-03-24T00:13:28;0.73;;;0.73;;
45490;SDS011;31237;45.586;13.782;2023-03-24T00:15:56;0.50;;;0.50;;
45490;SDS011;31237;45.586;13.782;2023-03-24T00:18:22;0.70;;;0.70;;
45490;SDS011;31237;45.586;13.782;2023-03-24T00:20:52;0.55;;;0.55;;
45490;SDS011;31237;45.586;13.782;2023-03-24T00:23:26;0.82;;;0.82;;
45490;SDS011;31237;45.586;13.782;2023-03-24T00:26:06;0.50;;;0.50;;
45490;SDS011;31237;45.586;13.782;2023-03-24T00:28:36;0.70;;;0.70;;
45490;SDS011;31237;45.586;13.782;2023-03-24T00:31:03;0.60;;;0.60;;
45490;SDS011;31237;45.586;13.782;2023-03-24T00:33:32;0.82;;;0.82;;
45490;SDS011;31237;45.586;13.782;2023-03-24T00:36:03;1.10;;;1.05;;
45490;SDS011;31237;45.586;13.782;2023-03-24T00:38:31;0.50;;;0.50;;
45490;SDS011;31237;45.586;13.782;2023-03-24T00:41:00;0.70;;;0.70;;
45490;SDS011;31237;45.586;13.782;2023-03-24T00:43:29;0.60;;;0.60;;
45490;SDS011;31237;45.586;13.782;2023-03-24T00:45:59;0.70;;;0.70;;
45490;SDS011;31237;45.586;13.782;2023-03-24T00:48:28;0.50;;;0.50;;
45490;SDS011;31237;45.586;13.782;2023-03-24T00:50:54;0.77;;;0.77;;
45490;SDS011;31237;45.586;13.782;2023-03-24T00:53:20;0.50;;;0.50;;
45490;SDS011;31237;45.586;13.782;2023-03-24T00:55:53;0.60;;;0.60;;
45490;SDS011;31237;45.586;13.782;2023-03-24T00:58:19;0.80;;;0.80;;
45490;SDS011;31237;45.586;13.782;2023-03-24T01:00:46;0.73;;;0.73;;
45490;SDS011;31237;45.586;13.782;2023-03-24T01:03:13;0.50;;;0.50;;
45490;SDS011;31237;45.586;13.782;2023-03-24T01:05:40;0.50;;;0.50;;
45490;SDS011;31237;45.586;13.782;2023-03-24T01:08:06;0.85;;;0.85;;
45490;SDS011;31237;45.586;13.782;2023-03-24T01:10:35;0.50;;;0.50;;
45490;SDS011;31237;45.586;13.782;2023-03-24T01:13:14;0.45;;;0.45;;
45490;SDS011;31237;45.586;13.782;2023-03-24T01:15:41;0.68;;;0.68;;
45490;SDS011;31237;45.586;13.782;2023-03-24T01:18:08;0.50;;;0.50;;
45490;SDS011;31237;45.586;13.782;2023-03-24T01:20:37;0.60;;;0.60;;
45490;SDS011;31237;45.586;13.782;2023-03-24T01:23:05;0.52;;;0.52;;
45490;SDS011;31237;45.586;13.782;2023-03-24T01:25:32;1.02;;;0.98;;
45490;SDS011;31237;45.586;13.782;2023-03-24T01:28:01;0.68;;;0.68;;
45490;SDS011;31237;45.586;13.782;2023-03-24T01:30:28;0.60;;;0.60;;
45490;SDS011;31237;45.586;13.782;2023-03-24T01:32:54;0.90;;;0.90;;
45490;SDS011;31237;45.586;13.782;2023-03-24T01:35:21;1.10;;;1.05;;
45490;SDS011;31237;45.586;13.782;2023-03-24T01:37:49;0.50;;;0.50;;
45490;SDS011;31237;45.586;13.782;2023-03-24T01:40:23;0.50;;;0.50;;
45490;SDS011;31237;45.586;13.782;2023-03-24T01:42:51;0.60;;;0.60;;
45490;SDS011;31237;45.586;13.782;2023-03-24T01:48:27;0.60;;;0.60;;
45490;SDS011;31237;45.586;13.782;2023-03-24T01:50:56;0.82;;;0.82;;
45490;SDS011;31237;45.586;13.782;2023-03-24T01:53:25;0.55;;;0.55;;
45490;SDS011;31237;45.586;13.782;2023-03-24T01:55:52;0.55;;;0.55;;
45490;SDS011;31237;45.586;13.782;2023-03-24T01:58:19;2.25;;;2.05;;
45490;SDS011;31237;45.586;13.782;2023-03-24T02:00:47;0.80;;;0.80;;
45490;SDS011;31237;45.586;13.782;2023-03-24T02:03:15;1.27;;;1.17;;
45490;SDS011;31237;45.586;13.782;2023-03-24T02:05:46;0.50;;;0.50;;
45490;SDS011;31237;45.586;13.782;2023-03-24T02:08:19;0.40;;;0.40;;
45490;SDS011;31237;45.586;13.782;2023-03-24T02:10:51;0.60;;;0.60;;
45490;SDS011;31237;45.586;13.782;2023-03-24T02:13:19;0.45;;;0.45;;
45490;SDS011;31237;45.586;13.782;2023-03-24T02:29:59;0.50;;;0.50;;
45490;SDS011;31237;45.586;13.782;2023-03-24T02:52:00;0.70;;;0.70;;
45490;SDS011;31237;45.586;13.782;2023-03-24T02:54:39;0.50;;;0.50;;
45490;SDS011;31237;45.586;13.782;2023-03-24T02:59:55;0.73;;;0.73;;
45490;SDS011;31237;45.586;13.782;2023-03-24T03:02:26;2.45;;;0.80;;
45490;SDS011;31237;45.586;13.782;2023-03-24T03:05:00;0.60;;;0.60;;
45490;SDS011;31237;45.586;13.782;2023-03-24T03:07:31;0.50;;;0.50;;
45490;SDS011;31237;45.586;13.782;2023-03-24T03:10:03;0.40;;;0.40;;
45490;SDS011;31237;45.586;13.782;2023-03-24T03:12:38;0.50;;;0.50;;
45490;SDS011;31237;45.586;13.782;2023-03-24T03:15:07;0.80;;;0.80;;
45490;SDS011;31237;45.586;13.782;2023-03-24T03:17:37;0.43;;;0.43;;
45490;SDS011;31237;45.586;13.782;2023-03-24T03:20:08;0.50;;;0.50;;
45490;SDS011;31237;45.586;13.782;2023-03-24T03:22:42;0.60;;;0.60;;
45490;SDS011;31237;45.586;13.782;2023-03-24T03:25:14;0.70;;;0.70;;
45490;SDS011;31237;45.586;13.782;2023-03-24T03:27:44;0.80;;;0.80;;
45490;SDS011;31237;45.586;13.782;2023-03-24T03:30:15;0.55;;;0.55;;
45490;SDS011;31237;45.586;13.782;2023-03-24T03:32:58;0.77;;;0.77;;
45490;SDS011;31237;45.586;13.782;2023-03-24T03:38:24;0.80;;;0.80;;
45490;SDS011;31237;45.586;13.782;2023-03-24T03:40:59;4.57;;;1.13;;
45490;SDS011;31237;45.586;13.782;2023-03-24T03:43:29;0.50;;;0.50;;
45490;SDS011;31237;45.586;13.782;2023-03-24T03:45:57;0.60;;;0.60;;
45490;SDS011;31237;45.586;13.782;2023-03-24T03:48:23;0.55;;;0.55;;
45490;SDS011;31237;45.586;13.782;2023-03-24T03:50:50;0.60;;;0.60;;
45490;SDS011;31237;45.586;13.782;2023-03-24T03:53:18;0.50;;;0.50;;
45490;SDS011;31237;45.586;13.782;2023-03-24T03:55:48;0.60;;;0.60;;
45490;SDS011;31237;45.586;13.782;2023-03-24T03:58:14;0.90;;;0.90;;
45490;SDS011;31237;45.586;13.782;2023-03-24T04:00:40;0.50;;;0.50;;
45490;SDS011;31237;45.586;13.782;2023-03-24T04:15:23;0.40;;;0.40;;
45490;SDS011;31237;45.586;13.782;2023-03-24T04:18:11;0.60;;;0.60;;
45490;SDS011;31237;45.586;13.782;2023-03-24T04:21:05;0.77;;;0.77;;
45490;SDS011;31237;45.586;13.782;2023-03-24T04:27:02;0.40;;;0.40;;
45490;SDS011;31237;45.586;13.782;2023-03-24T04:32:15;0.70;;;0.70;;
45490;SDS011;31237;45.586;13.782;2023-03-24T04:34:54;0.60;;;0.60;;
45490;SDS011;31237;45.586;13.782;2023-03-24T04:37:27;0.60;;;0.60;;
45490;SDS011;31237;45.586;13.782;2023-03-24T04:40:02;0.60;;;0.60;;
45490;SDS011;31237;45.586;13.782;2023-03-24T04:42:38;0.60;;;0.60;;
45490;SDS011;31237;45.586;13.782;2023-03-24T04:45:09;0.50;;;0.50;;
45490;SDS011;31237;45.586;13.782;2023-03-24T04:47:39;0.55;;;0.55;;
45490;SDS011;31237;45.586;13.782;2023-03-24T04:50:11;1.33;;;1.23;;
45490;SDS011;31237;45.586;13.782;2023-03-24T04:52:38;0.40;;;0.40;;
45490;SDS011;31237;45.586;13.782;2023-03-24T04:55:52;0.63;;;0.63;;
45490;SDS011;31237;45.586;13.782;2023-03-24T04:57:51;1.20;;;1.10;;
45490;SDS011;31237;45.586;13.782;2023-03-24T05:00:17;0.50;;;0.50;;
45490;SDS011;31237;45.586;13.782;2023-03-24T05:02:43;0.40;;;0.40;;
45490;SDS011;31237;45.586;13.782;2023-03-24T05:05:09;0.50;;;0.50;;
45490;SDS011;31237;45.586;13.782;2023-03-24T05:07:35;0.55;;;0.55;;
45490;SDS011;31237;45.586;13.782;2023-03-24T05:10:01;0.50;;;0.50;;
45490;SDS011;31237;45.586;13.782;2023-03-24T05:12:27;0.63;;;0.63;;
45490;SDS011;31237;45.586;13.782;2023-03-24T05:14:53;0.50;;;0.50;;
45490;SDS011;31237;45.586;13.782;2023-03-24T05:17:18;1.02;;;1.02;;
45490;SDS011;31237;45.586;13.782;2023-03-24T05:19:44;0.50;;;0.50;;
45490;SDS011;31237;45.586;13.782;2023-03-24T05:22:10;0.60;;;0.60;;
45490;SDS011;31237;45.586;13.782;2023-03-24T05:24:35;0.57;;;0.57;;
45490;SDS011;31237;45.586;13.782;2023-03-24T05:27:01;0.40;;;0.40;;
45490;SDS011;31237;45.586;13.782;2023-03-24T05:29:27;0.60;;;0.60;;
45490;SDS011;31237;45.586;13.782;2023-03-24T05:31:52;0.98;;;0.98;;
45490;SDS011;31237;45.586;13.782;2023-03-24T05:34:19;0.55;;;0.55;;
45490;SDS011;31237;45.586;13.782;2023-03-24T05:36:46;0.40;;;0.40;;
45490;SDS011;31237;45.586;13.782;2023-03-24T05:39:11;0.80;;;0.80;;
45490;SDS011;31237;45.586;13.782;2023-03-24T05:41:37;0.50;;;0.50;;
45490;SDS011;31237;45.586;13.782;2023-03-24T05:44:03;0.50;;;0.50;;
45490;SDS011;31237;45.586;13.782;2023-03-24T05:46:34;0.60;;;0.60;;
45490;SDS011;31237;45.586;13.782;2023-03-24T05:48:59;0.50;;;0.50;;
45490;SDS011;31237;45.586;13.782;2023-03-24T05:51:25;0.50;;;0.50;;
45490;SDS011;31237;45.586;13.782;2023-03-24T05:53:51;0.45;;;0.45;;
45490;SDS011;31237;45.586;13.782;2023-03-24T05:56:16;0.60;;;0.60;;
45490;SDS011;31237;45.586;13.782;2023-03-24T05:58:42;0.50;;;0.50;;
45490;SDS011;31237;45.586;13.782;2023-03-24T06:01:09;0.43;;;0.43;;
45490;SDS011;31237;45.586;13.782;2023-03-24T06:03:36;0.60;;;0.60;;
45490;SDS011;31237;45.586;13.782;2023-03-24T06:06:04;0.50;;;0.50;;
45490;SDS011;31237;45.586;13.782;2023-03-24T06:08:34;0.65;;;0.65;;
45490;SDS011;31237;45.586;13.782;2023-03-24T06:11:00;0.55;;;0.55;;
45490;SDS011;31237;45.586;13.782;2023-03-24T06:13:27;0.40;;;0.40;;
45490;SDS011;31237;45.586;13.782;2023-03-24T06:15:54;0.82;;;0.82;;
45490;SDS011;31237;45.586;13.782;2023-03-24T06:18:23;0.52;;;0.52;;
45490;SDS011;31237;45.586;13.782;2023-03-24T06:20:50;0.50;;;0.50;;
45490;SDS011;31237;45.586;13.782;2023-03-24T06:23:22;0.55;;;0.55;;
45490;SDS011;31237;45.586;13.782;2023-03-24T06:25:53;0.60;;;0.60;;
45490;SDS011;31237;45.586;13.782;2023-03-24T06:28:20;0.70;;;0.70;;
45490;SDS011;31237;45.586;13.782;2023-03-24T06:30:46;0.50;;;0.50;;
45490;SDS011;31237;45.586;13.782;2023-03-24T06:33:13;0.52;;;0.52;;
45490;SDS011;31237;45.586;13.782;2023-03-24T06:35:39;0.75;;;0.75;;
45490;SDS011;31237;45.586;13.782;2023-03-24T06:38:05;0.70;;;0.70;;
45490;SDS011;31237;45.586;13.782;2023-03-24T06:40:32;0.80;;;0.80;;
45490;SDS011;31237;45.586;13.782;2023-03-24T06:42:58;0.50;;;0.50;;
45490;SDS011;31237;45.586;13.782;2023-03-24T06:45:24;0.55;;;0.55;;
45490;SDS011;31237;45.586;13.782;2023-03-24T06:47:51;0.70;;;0.70;;
45490;SDS011;31237;45.586;13.782;2023-03-24T06:50:20;0.52;;;0.52;;
45490;SDS011;31237;45.586;13.782;2023-03-24T06:52:47;0.80;;;0.80;;
45490;SDS011;31237;45.586;13.782;2023-03-24T06:55:12;1.30;;;1.17;;
45490;SDS011;31237;45.586;13.782;2023-03-24T06:57:38;0.93;;;0.93;;
45490;SDS011;31237;45.586;13.782;2023-03-24T07:00:04;3.20;;;1.15;;
45490;SDS011;31237;45.586;13.782;2023-03-24T07:02:32;0.85;;;0.85;;
45490;SDS011;31237;45.586;13.782;2023-03-24T07:04:59;0.75;;;0.75;;
45490;SDS011;31237;45.586;13.782;2023-03-24T07:07:33;0.65;;;0.65;;
45490;SDS011;31237;45.586;13.782;2023-03-24T07:09:59;0.50;;;0.50;;
45490;SDS011;31237;45.586;13.782;2023-03-24T07:12:26;0.50;;;0.50;;
45490;SDS011;31237;45.586;13.782;2023-03-24T07:14:52;0.65;;;0.65;;
45490;SDS011;31237;45.586;13.782;2023-03-24T07:17:19;0.70;;;0.70;;
45490;SDS011;31237;45.586;13.782;2023-03-24T07:19:45;0.63;;;0.63;;
45490;SDS011;31237;45.586;13.782;2023-03-24T07:22:11;1.15;;;1.05;;
45490;SDS011;31237;45.586;13.782;2023-03-24T07:24:37;0.82;;;0.82;;
45490;SDS011;31237;45.586;13.782;2023-03-24T07:27:03;0.65;;;0.65;;
45490;SDS011;31237;45.586;13.782;2023-03-24T07:29:28;0.60;;;0.60;;
45490;SDS011;31237;45.586;13.782;2023-03-24T07:31:55;0.73;;;0.73;;
45490;SDS011;31237;45.586;13.782;2023-03-24T07:34:24;0.52;;;0.52;;
45490;SDS011;31237;45.586;13.782;2023-03-24T07:36:51;0.60;;;0.60;;
45490;SDS011;31237;45.586;13.782;2023-03-24T07:39:17;0.77;;;0.77;;
45490;SDS011;31237;45.586;13.782;2023-03-24T07:41:43;1.27;;;1.17;;
45490;SDS011;31237;45.586;13.782;2023-03-24T07:44:09;0.70;;;0.70;;
45490;SDS011;31237;45.586;13.782;2023-03-24T07:46:35;0.70;;;0.70;;
45490;SDS011;31237;45.586;13.782;2023-03-24T07:49:01;0.65;;;0.65;;
45490;SDS011;31237;45.586;13.782;2023-03-24T07:51:27;0.50;;;0.50;;
45490;SDS011;31237;45.586;13.782;2023-03-24T07:53:53;0.75;;;0.75;;
45490;SDS011;31237;45.586;13.782;2023-03-24T07:56:18;0.50;;;0.50;;
45490;SDS011;31237;45.586;13.782;2023-03-24T07:58:44;0.85;;;0.82;;
45490;SDS011;31237;45.586;13.782;2023-03-24T08:01:11;0.70;;;0.70;;
45490;SDS011;31237;45.586;13.782;2023-03-24T08:03:37;0.70;;;0.70;;
45490;SDS011;31237;45.586;13.782;2023-03-24T08:06:05;0.57;;;0.57;;
45490;SDS011;31237;45.586;13.782;2023-03-24T08:08:32;0.70;;;0.70;;
45490;SDS011;31237;45.586;13.782;2023-03-24T08:10:58;0.60;;;0.60;;
45490;SDS011;31237;45.586;13.782;2023-03-24T08:13:24;1.25;;;1.10;;
45490;SDS011;31237;45.586;13.782;2023-03-24T08:15:50;0.60;;;0.60;;
45490;SDS011;31237;45.586;13.782;2023-03-24T08:18:17;0.90;;;0.90;;
45490;SDS011;31237;45.586;13.782;2023-03-24T08:20:45;1.65;;;0.95;;
45490;SDS011;31237;45.586;13.782;2023-03-24T08:23:11;0.60;;;0.60;;
45490;SDS011;31237;45.586;13.782;2023-03-24T08:25:37;0.70;;;0.70;;
45490;SDS011;31237;45.586;13.782;2023-03-24T08:28:03;1.30;;;1.00;;
45490;SDS011;31237;45.586;13.782;2023-03-24T08:30:30;0.60;;;0.60;;
45490;SDS011;31237;45.586;13.782;2023-03-24T08:32:57;1.25;;;1.25;;
45490;SDS011;31237;45.586;13.782;2023-03-24T08:35:28;0.73;;;0.73;;
45490;SDS011;31237;45.586;13.782;2023-03-24T08:37:56;0.88;;;0.88;;
45490;SDS011;31237;45.586;13.782;2023-03-24T08:40:23;1.23;;;1.13;;
45490;SDS011;31237;45.586;13.782;2023-03-24T08:42:51;7.68;;;1.08;;
45490;SDS011;31237;45.586;13.782;2023-03-24T08:45:20;0.70;;;0.70;;
45490;SDS011;31237;45.586;13.782;2023-03-24T08:47:51;1.25;;;1.15;;
45490;SDS011;31237;45.586;13.782;2023-03-24T08:50:19;0.65;;;0.65;;
45490;SDS011;31237;45.586;13.782;2023-03-24T08:52:47;1.08;;;1.02;;
45490;SDS011;31237;45.586;13.782;2023-03-24T08:55:14;0.60;;;0.60;;
45490;SDS011;31237;45.586;13.782;2023-03-24T08:57:41;1.55;;;1.38;;
45490;SDS011;31237;45.586;13.782;2023-03-24T09:00:07;1.13;;;1.02;;
45490;SDS011;31237;45.586;13.782;2023-03-24T09:02:42;0.63;;;0.63;;
45490;SDS011;31237;45.586;13.782;2023-03-24T09:05:16;1.48;;;1.38;;
45490;SDS011;31237;45.586;13.782;2023-03-24T09:07:43;1.10;;;1.10;;
45490;SDS011;31237;45.586;13.782;2023-03-24T09:10:10;1.08;;;1.05;;
45490;SDS011;31237;45.586;13.782;2023-03-24T09:12:36;1.42;;;1.33;;
45490;SDS011;31237;45.586;13.782;2023-03-24T09:15:03;0.80;;;0.80;;
45490;SDS011;31237;45.586;13.782;2023-03-24T09:17:30;1.15;;;1.10;;
45490;SDS011;31237;45.586;13.782;2023-03-24T09:19:56;0.82;;;0.82;;
45490;SDS011;31237;45.586;13.782;2023-03-24T09:22:23;1.38;;;1.27;;
45490;SDS011;31237;45.586;13.782;2023-03-24T09:24:49;1.38;;;1.27;;
45490;SDS011;31237;45.586;13.782;2023-03-24T09:27:15;1.48;;;1.38;;
45490;SDS011;31237;45.586;13.782;2023-03-24T09:29:42;0.68;;;0.68;;
45490;SDS011;31237;45.586;13.782;2023-03-24T09:32:08;0.80;;;0.80;;
45490;SDS011;31237;45.586;13.782;2023-03-24T09:34:34;4.55;;;1.35;;
45490;SDS011;31237;45.586;13.782;2023-03-24T09:37:02;1.73;;;1.63;;
45490;SDS011;31237;45.586;13.782;2023-03-24T09:39:34;0.80;;;0.80;;
45490;SDS011;31237;45.586;13.782;2023-03-24T09:42:01;1.63;;;1.45;;
45490;SDS011;31237;45.586;13.782;2023-03-24T09:44:36;1.58;;;1.42;;
45490;SDS011;31237;45.586;13.782;2023-03-24T09:47:12;1.02;;;1.00;;
45490;SDS011;31237;45.586;13.782;2023-03-24T09:49:40;2.70;;;1.85;;
45490;SDS011;31237;45.586;13.782;2023-03-24T09:52:11;1.55;;;1.10;;
45490;SDS011;31237;45.586;13.782;2023-03-24T10:00:24;1.00;;;1.00;;
45490;SDS011;31237;45.586;13.782;2023-03-24T10:02:52;1.55;;;1.45;;
45490;SDS011;31237;45.586;13.782;2023-03-24T10:05:44;1.15;;;1.15;;
45490;SDS011;31237;45.586;13.782;2023-03-24T10:08:26;1.35;;;1.25;;
45490;SDS011;31237;45.586;13.782;2023-03-24T10:11:01;1.73;;;1.58;;
45490;SDS011;31237;45.586;13.782;2023-03-24T10:21:44;1.50;;;1.40;;
45490;SDS011;31237;45.586;13.782;2023-03-24T10:27:21;0.73;;;0.73;;
45490;SDS011;31237;45.586;13.782;2023-03-24T10:29:59;2.13;;;1.52;;
45490;SDS011;31237;45.586;13.782;2023-03-24T10:32:36;1.15;;;1.15;;
45490;SDS011;31237;45.586;13.782;2023-03-24T10:35:02;1.30;;;1.20;;
45490;SDS011;31237;45.586;13.782;2023-03-24T10:37:34;1.27;;;1.25;;
45490;SDS011;31237;45.586;13.782;2023-03-24T10:40:00;2.08;;;1.55;;
45490;SDS011;31237;45.586;13.782;2023-03-24T10:42:27;2.03;;;1.33;;
45490;SDS011;31237;45.586;13.782;2023-03-24T10:44:57;2.08;;;1.80;;
45490;SDS011;31237;45.586;13.782;2023-03-24T10:47:24;1.77;;;1.67;;
45490;SDS011;31237;45.586;13.782;2023-03-24T10:49:53;1.50;;;1.40;;
45490;SDS011;31237;45.586;13.782;2023-03-24T10:52:25;1.48;;;1.38;;
45490;SDS011;31237;45.586;13.782;2023-03-24T10:54:55;2.25;;;1.80;;
45490;SDS011;31237;45.586;13.782;2023-03-24T10:57:30;2.20;;;1.75;;
45490;SDS011;31237;45.586;13.782;2023-03-24T11:02:33;1.88;;;1.77;;
45490;SDS011;31237;45.586;13.782;2023-03-24T11:05:11;0.93;;;0.93;;
45490;SDS011;31237;45.586;13.782;2023-03-24T11:07:47;1.92;;;1.83;;
45490;SDS011;31237;45.586;13.782;2023-03-24T11:15:31;0.90;;;0.90;;
45490;SDS011;31237;45.586;13.782;2023-03-24T11:18:00;7.55;;;1.85;;
45490;SDS011;31237;45.586;13.782;2023-03-24T11:23:33;1.65;;;1.35;;
45490;SDS011;31237;45.586;13.782;2023-03-24T11:28:51;1.50;;;1.40;;
45490;SDS011;31237;45.586;13.782;2023-03-24T11:31:23;20.63;;;3.08;;
45490;SDS011;31237;45.586;13.782;2023-03-24T11:34:15;3.03;;;1.98;;
45490;SDS011;31237;45.586;13.782;2023-03-24T11:36:48;2.30;;;2.10;;
45490;SDS011;31237;45.586;13.782;2023-03-24T11:39:23;3.38;;;2.15;;
45490;SDS011;31237;45.586;13.782;2023-03-24T11:42:12;2.20;;;2.08;;
45490;SDS011;31237;45.586;13.782;2023-03-24T11:44:42;3.75;;;2.00;;
45490;SDS011;31237;45.586;13.782;2023-03-24T11:58:25;2.90;;;2.60;;
45490;SDS011;31237;45.586;13.782;2023-03-24T12:09:19;2.72;;;2.47;;
45490;SDS011;31237;45.586;13.782;2023-03-24T12:15:36;3.30;;;2.47;;
45490;SDS011;31237;45.586;13.782;2023-03-24T12:18:18;4.07;;;3.05;;
45490;SDS011;31237;45.586;13.782;2023-03-24T12:39:29;1.85;;;1.33;;
45490;SDS011;31237;45.586;13.782;2023-03-24T12:45:19;1.00;;;1.00;;
45490;SDS011;31237;45.586;13.782;2023-03-24T12:47:42;2.35;;;1.60;;
45490;SDS011;31237;45.586;13.782;2023-03-24T12:56:00;1.02;;;1.02;;
45490;SDS011;31237;45.586;13.782;2023-03-24T12:59:05;1.35;;;1.27;;
45490;SDS011;31237;45.586;13.782;2023-03-24T13:04:24;1.27;;;1.17;;
45490;SDS011;31237;45.586;13.782;2023-03-24T13:07:01;1.90;;;1.73;;
45490;SDS011;31237;45.586;13.782;2023-03-24T13:12:02;1.42;;;1.17;;
45490;SDS011;31237;45.586;13.782;2023-03-24T13:14:45;0.90;;;0.90;;
45490;SDS011;31237;45.586;13.782;2023-03-24T13:17:54;1.23;;;1.23;;
45490;SDS011;31237;45.586;13.782;2023-03-24T13:22:58;1.88;;;1.58;;
45490;SDS011;31237;45.586;13.782;2023-03-24T13:25:48;7.38;;;2.35;;
45490;SDS011;31237;45.586;13.782;2023-03-24T13:28:37;1.27;;;1.17;;
45490;SDS011;31237;45.586;13.782;2023-03-24T13:31:12;1.48;;;1.33;;
45490;SDS011;31237;45.586;13.782;2023-03-24T13:33:39;1.70;;;1.60;;
45490;SDS011;31237;45.586;13.782;2023-03-24T13:39:00;1.77;;;1.60;;
45490;SDS011;31237;45.586;13.782;2023-03-24T13:41:34;1.65;;;1.55;;
45490;SDS011;31237;45.586;13.782;2023-03-24T13:44:08;1.70;;;1.60;;
45490;SDS011;31237;45.586;13.782;2023-03-24T13:46:43;1.17;;;1.15;;
45490;SDS011;31237;45.586;13.782;2023-03-24T13:49:30;1.30;;;1.13;;
45490;SDS011;31237;45.586;13.782;2023-03-24T13:51:56;1.60;;;1.50;;
45490;SDS011;31237;45.586;13.782;2023-03-24T13:54:26;2.25;;;1.80;;
45490;SDS011;31237;45.586;13.782;2023-03-24T13:59:38;3.58;;;1.90;;
45490;SDS011;31237;45.586;13.782;2023-03-24T14:09:56;1.13;;;1.05;;
45490;SDS011;31237;45.586;13.782;2023-03-24T14:12:24;1.58;;;1.48;;
45490;SDS011;31237;45.586;13.782;2023-03-24T14:17:45;1.13;;;1.02;;
45490;SDS011;31237;45.586;13.782;2023-03-24T14:22:56;4.13;;;2.00;;
45490;SDS011;31237;45.586;13.782;2023-03-24T14:25:24;0.90;;;0.90;;
45490;SDS011;31237;45.586;13.782;2023-03-24T14:30:54;0.50;;;0.50;;
45490;SDS011;31237;45.586;13.782;2023-03-24T14:33:37;1.75;;;1.30;;
45490;SDS011;31237;45.586;13.782;2023-03-24T14:36:05;6.95;;;1.80;;
45490;SDS011;31237;45.586;13.782;2023-03-24T14:38:36;1.30;;;1.20;;
45490;SDS011;31237;45.586;13.782;2023-03-24T14:41:10;1.30;;;1.17;;
45490;SDS011;31237;45.586;13.782;2023-03-24T14:46:07;0.80;;;0.80;;
45490;SDS011;31237;45.586;13.782;2023-03-24T14:49:16;1.45;;;1.35;;
45490;SDS011;31237;45.586;13.782;2023-03-24T14:51:44;0.82;;;0.82;;
45490;SDS011;31237;45.586;13.782;2023-03-24T14:57:33;1.65;;;1.55;;
45490;SDS011;31237;45.586;13.782;2023-03-24T15:02:44;1.02;;;1.02;;
45490;SDS011;31237;45.586;13.782;2023-03-24T15:07:38;2.40;;;1.42;;
45490;SDS011;31237;45.586;13.782;2023-03-24T15:10:06;1.05;;;1.02;;
45490;SDS011;31237;45.586;13.782;2023-03-24T15:12:41;1.00;;;0.98;;
45490;SDS011;31237;45.586;13.782;2023-03-24T15:15:15;0.82;;;0.82;;
45490;SDS011;31237;45.586;13.782;2023-03-24T15:17:48;1.50;;;1.40;;
45490;SDS011;31237;45.586;13.782;2023-03-24T15:20:28;1.60;;;1.50;;
45490;SDS011;31237;45.586;13.782;2023-03-24T15:23:05;2.83;;;2.42;;
45490;SDS011;31237;45.586;13.782;2023-03-24T15:25:40;2.08;;;1.80;;
45490;SDS011;31237;45.586;13.782;2023-03-24T15:28:10;4.40;;;2.88;;
45490;SDS011;31237;45.586;13.782;2023-03-24T15:30:57;1.25;;;1.20;;
45490;SDS011;31237;45.586;13.782;2023-03-24T15:33:23;6.28;;;3.08;;
45490;SDS011;31237;45.586;13.782;2023-03-24T15:35:53;4.47;;;2.00;;
45490;SDS011;31237;45.586;13.782;2023-03-24T15:38:26;2.20;;;2.00;;
45490;SDS011;31237;45.586;13.782;2023-03-24T15:41:01;1.13;;;1.05;;
45490;SDS011;31237;45.586;13.782;2023-03-24T15:43:43;1.98;;;1.85;;
45490;SDS011;31237;45.586;13.782;2023-03-24T15:46:21;2.83;;;2.15;;
45490;SDS011;31237;45.586;13.782;2023-03-24T15:48:52;2.25;;;1.75;;
45490;SDS011;31237;45.586;13.782;2023-03-24T15:51:19;2.33;;;1.77;;
45490;SDS011;31237;45.586;13.782;2023-03-24T15:54:17;2.92;;;1.77;;
45490;SDS011;31237;45.586;13.782;2023-03-24T15:57:08;1.02;;;1.02;;
45490;SDS011;31237;45.586;13.782;2023-03-24T15:59:35;5.70;;;1.48;;
45490;SDS011;31237;45.586;13.782;2023-03-24T16:02:09;1.42;;;1.27;;
45490;SDS011;31237;45.586;13.782;2023-03-24T16:04:42;3.63;;;1.27;;
45490;SDS011;31237;45.586;13.782;2023-03-24T16:07:19;1.60;;;1.50;;
45490;SDS011;31237;45.586;13.782;2023-03-24T16:10:00;1.48;;;1.38;;
45490;SDS011;31237;45.586;13.782;2023-03-24T16:12:34;10.15;;;1.70;;
45490;SDS011;31237;45.586;13.782;2023-03-24T16:15:01;2.58;;;1.73;;
45490;SDS011;31237;45.586;13.782;2023-03-24T16:17:30;1.25;;;1.15;;
45490;SDS011;31237;45.586;13.782;2023-03-24T16:19:56;1.15;;;1.15;;
45490;SDS011;31237;45.586;13.782;2023-03-24T16:22:22;0.75;;;0.75;;
45490;SDS011;31237;45.586;13.782;2023-03-24T16:24:48;1.25;;;1.15;;
45490;SDS011;31237;45.586;13.782;2023-03-24T16:27:14;0.95;;;0.93;;
45490;SDS011;31237;45.586;13.782;2023-03-24T16:29:40;3.13;;;1.77;;
45490;SDS011;31237;45.586;13.782;2023-03-24T16:32:07;1.27;;;1.17;;
45490;SDS011;31237;45.586;13.782;2023-03-24T16:34:34;2.58;;;1.45;;
45490;SDS011;31237;45.586;13.782;2023-03-24T16:37:01;1.15;;;1.15;;
45490;SDS011;31237;45.586;13.782;2023-03-24T16:39:29;1.17;;;1.15;;
45490;SDS011;31237;45.586;13.782;2023-03-24T16:41:55;1.00;;;1.00;;
45490;SDS011;31237;45.586;13.782;2023-03-24T16:44:21;1.05;;;0.95;;
45490;SDS011;31237;45.586;13.782;2023-03-24T16:46:49;0.80;;;0.80;;
45490;SDS011;31237;45.586;13.782;2023-03-24T16:49:17;0.65;;;0.65;;
45490;SDS011;31237;45.586;13.782;2023-03-24T16:51:43;1.02;;;1.02;;
45490;SDS011;31237;45.586;13.782;2023-03-24T16:54:10;0.98;;;0.98;;
45490;SDS011;31237;45.586;13.782;2023-03-24T16:56:36;0.57;;;0.57;;
45490;SDS011;31237;45.586;13.782;2023-03-24T16:59:03;0.60;;;0.60;;
45490;SDS011;31237;45.586;13.782;2023-03-24T17:04:01;0.50;;;0.50;;
45490;SDS011;31237;45.586;13.782;2023-03-24T17:06:33;1.30;;;0.70;;
45490;SDS011;31237;45.586;13.782;2023-03-24T17:09:01;0.60;;;0.60;;
45490;SDS011;31237;45.586;13.782;2023-03-24T17:11:51;1.23;;;1.15;;
45490;SDS011;31237;45.586;13.782;2023-03-24T17:14:17;0.60;;;0.60;;
45490;SDS011;31237;45.586;13.782;2023-03-24T17:16:43;0.70;;;0.70;;
45490;SDS011;31237;45.586;13.782;2023-03-24T17:19:11;1.45;;;1.35;;
45490;SDS011;31237;45.586;13.782;2023-03-24T17:24:10;0.93;;;0.90;;
45490;SDS011;31237;45.586;13.782;2023-03-24T17:26:37;0.70;;;0.70;;
45490;SDS011;31237;45.586;13.782;2023-03-24T17:29:04;0.52;;;0.52;;
45490;SDS011;31237;45.586;13.782;2023-03-24T17:31:30;0.70;;;0.70;;
45490;SDS011;31237;45.586;13.782;2023-03-24T17:33:56;1.33;;;1.23;;
45490;SDS011;31237;45.586;13.782;2023-03-24T17:36:23;0.50;;;0.50;;
45490;SDS011;31237;45.586;13.782;2023-03-24T17:38:49;0.50;;;0.50;;
45490;SDS011;31237;45.586;13.782;2023-03-24T17:41:15;0.73;;;0.73;;
45490;SDS011;31237;45.586;13.782;2023-03-24T17:43:43;0.70;;;0.70;;
45490;SDS011;31237;45.586;13.782;2023-03-24T17:46:11;0.77;;;0.77;;
45490;SDS011;31237;45.586;13.782;2023-03-24T17:48:39;0.63;;;0.63;;
45490;SDS011;31237;45.586;13.782;2023-03-24T17:51:05;0.70;;;0.70;;
45490;SDS011;31237;45.586;13.782;2023-03-24T17:53:31;0.70;;;0.70;;
45490;SDS011;31237;45.586;13.782;2023-03-24T17:55:59;0.88;;;0.88;;
45490;SDS011;31237;45.586;13.782;2023-03-24T17:58:29;0.60;;;0.60;;